sensor_id;sensor_type;location;lat;lon;timestamp;temperature;humidity
6822;DHT22;3449;48.728;8.968;2024-01-30T00:00:38;2.20;99.90
6822;DHT22;3449;48.728;8.968;2024-01-30T00:03:05;2.20;99.90
6822;DHT22;3449;48.728;8.968;2024-01-30T00:05:31;2.30;99.90
6822;DHT22;3449;48.728;8.968;2024-01-30T00:07:58;2.20;99.90
6822;DHT22;3449;48.728;8.968;2024-01-30T00:10:25;2.20;99.90
6822;DHT22;3449;48.728;8.968;2024-01-30T00:12:52;2.20;99.90
6822;DHT22;3449;48.728;8.968;2024-01-30T00:15:20;2.20;99.90
6822;DHT22;3449;48.728;8.968;2024-01-30T00:17:47;2.20;99.90
6822;DHT22;3449;48.728;8.968;2024-01-30T00:20:14;2.20;99.90
6822;DHT22;3449;48.728;8.968;2024-01-30T00:22:41;2.30;99.90
6822;DHT22;3449;48.728;8.968;2024-01-30T00:25:08;2.20;99.90
6822;DHT22;3449;48.728;8.968;2024-01-30T00:27:35;2.30;99.90
6822;DHT22;3449;48.728;8.968;2024-01-30T00:30:02;2.30;99.90
6822;DHT22;3449;48.728;8.968;2024-01-30T00:32:30;2.30;99.90
6822;DHT22;3449;48.728;8.968;2024-01-30T00:34:57;2.30;99.90
6822;DHT22;3449;48.728;8.968;2024-01-30T00:37:24;2.30;99.90
6822;DHT22;3449;48.728;8.968;2024-01-30T00:39:51;2.30;99.90
6822;DHT22;3449;48.728;8.968;2024-01-30T00:42:17;2.30;99.90
6822;DHT22;3449;48.728;8.968;2024-01-30T00:44:45;2.20;99.90
6822;DHT22;3449;48.728;8.968;2024-01-30T00:47:11;2.20;99.90
6822;DHT22;3449;48.728;8.968;2024-01-30T00:49:40;2.20;99.90
6822;DHT22;3449;48.728;8.968;2024-01-30T00:52:06;2.20;99.90
6822;DHT22;3449;48.728;8.968;2024-01-30T00:54:33;2.10;99.90
6822;DHT22;3449;48.728;8.968;2024-01-30T00:57:00;2.10;99.90
6822;DHT22;3449;48.728;8.968;2024-01-30T00:59:27;2.10;99.90
6822;DHT22;3449;48.728;8.968;2024-01-30T01:01:54;2.20;99.90
6822;DHT22;3449;48.728;8.968;2024-01-30T01:04:20;2.10;99.90
6822;DHT22;3449;48.728;8.968;2024-01-30T01:06:49;2.10;99.90
6822;DHT22;3449;48.728;8.968;2024-01-30T01:09:16;2.10;99.90
6822;DHT22;3449;48.728;8.968;2024-01-30T01:11:43;2.10;99.90
6822;DHT22;3449;48.728;8.968;2024-01-30T01:14:09;2.20;99.90
6822;DHT22;3449;48.728;8.968;2024-01-30T01:16:36;2.10;99.90
6822;DHT22;3449;48.728;8.968;2024-01-30T01:19:03;2.10;99.90
6822;DHT22;3449;48.728;8.968;2024-01-30T01:21:30;2.10;99.90
6822;DHT22;3449;48.728;8.968;2024-01-30T01:23:58;2.10;99.90
6822;DHT22;3449;48.728;8.968;2024-01-30T01:26:25;2.10;99.90
6822;DHT22;3449;48.728;8.968;2024-01-30T01:28:51;2.00;99.90
6822;DHT22;3449;48.728;8.968;2024-01-30T01:31:18;2.00;99.90
6822;DHT22;3449;48.728;8.968;2024-01-30T01:33:48;2.00;99.90
6822;DHT22;3449;48.728;8.968;2024-01-30T01:36:15;2.00;99.90
6822;DHT22;3449;48.728;8.968;2024-01-30T01:38:41;2.00;99.90
6822;DHT22;3449;48.728;8.968;2024-01-30T01:41:10;2.00;99.90
6822;DHT22;3449;48.728;8.968;2024-01-30T01:43:37;2.00;99.90
6822;DHT22;3449;48.728;8.968;2024-01-30T01:46:04;2.00;99.90
6822;DHT22;3449;48.728;8.968;2024-01-30T01:48:31;2.00;99.90
6822;DHT22;3449;48.728;8.968;2024-01-30T01:50:59;2.00;99.90
6822;DHT22;3449;48.728;8.968;2024-01-30T01:53:26;2.00;99.90
6822;DHT22;3449;48.728;8.968;2024-01-30T01:55:54;2.00;99.90
6822;DHT22;3449;48.728;8.968;2024-01-30T01:58:25;2.00;99.90
6822;DHT22;3449;48.728;8.968;2024-01-30T02:00:54;2.00;99.90
6822;DHT22;3449;48.728;8.968;2024-01-30T02:03:22;2.00;99.90
6822;DHT22;3449;48.728;8.968;2024-01-30T02:05:50;1.90;99.90
6822;DHT22;3449;48.728;8.968;2024-01-30T02:08:17;1.80;99.90
6822;DHT22;3449;48.728;8.968;2024-01-30T02:10:44;1.90;99.90
6822;DHT22;3449;48.728;8.968;2024-01-30T02:13:11;1.90;99.90
6822;DHT22;3449;48.728;8.968;2024-01-30T02:15:39;1.80;99.90
6822;DHT22;3449;48.728;8.968;2024-01-30T02:18:06;1.80;99.90
6822;DHT22;3449;48.728;8.968;2024-01-30T02:20:35;1.80;99.90
6822;DHT22;3449;48.728;8.968;2024-01-30T02:23:04;1.80;99.90
6822;DHT22;3449;48.728;8.968;2024-01-30T02:25:32;1.70;99.90
6822;DHT22;3449;48.728;8.968;2024-01-30T02:27:59;1.80;99.90
6822;DHT22;3449;48.728;8.968;2024-01-30T02:30:26;1.70;99.90
6822;DHT22;3449;48.728;8.968;2024-01-30T02:32:53;1.70;99.90
6822;DHT22;3449;48.728;8.968;2024-01-30T02:35:20;1.70;99.90
6822;DHT22;3449;48.728;8.968;2024-01-30T02:37:47;1.60;99.90
6822;DHT22;3449;48.728;8.968;2024-01-30T02:40:15;1.70;99.90
6822;DHT22;3449;48.728;8.968;2024-01-30T02:42:42;1.60;99.90
6822;DHT22;3449;48.728;8.968;2024-01-30T02:45:10;1.60;99.90
6822;DHT22;3449;48.728;8.968;2024-01-30T02:47:38;1.60;99.90
6822;DHT22;3449;48.728;8.968;2024-01-30T02:50:05;1.60;99.90
6822;DHT22;3449;48.728;8.968;2024-01-30T02:52:32;1.50;99.90
6822;DHT22;3449;48.728;8.968;2024-01-30T02:54:59;1.50;99.90
6822;DHT22;3449;48.728;8.968;2024-01-30T02:57:28;1.50;99.90
6822;DHT22;3449;48.728;8.968;2024-01-30T02:59:55;1.50;99.90
6822;DHT22;3449;48.728;8.968;2024-01-30T03:02:22;1.50;99.90
6822;DHT22;3449;48.728;8.968;2024-01-30T03:04:48;1.50;99.90
6822;DHT22;3449;48.728;8.968;2024-01-30T03:07:15;1.50;99.90
6822;DHT22;3449;48.728;8.968;2024-01-30T03:09:42;1.40;99.90
6822;DHT22;3449;48.728;8.968;2024-01-30T03:12:09;1.50;99.90
6822;DHT22;3449;48.728;8.968;2024-01-30T03:14:37;1.40;99.90
6822;DHT22;3449;48.728;8.968;2024-01-30T03:17:04;1.40;99.90
6822;DHT22;3449;48.728;8.968;2024-01-30T03:19:31;1.40;99.90
6822;DHT22;3449;48.728;8.968;2024-01-30T03:21:58;1.40;99.90
6822;DHT22;3449;48.728;8.968;2024-01-30T03:24:25;1.40;99.90
6822;DHT22;3449;48.728;8.968;2024-01-30T03:26:52;1.40;99.90
6822;DHT22;3449;48.728;8.968;2024-01-30T03:29:18;1.40;99.90
6822;DHT22;3449;48.728;8.968;2024-01-30T03:31:47;1.50;99.90
6822;DHT22;3449;48.728;8.968;2024-01-30T03:34:14;1.40;99.90
6822;DHT22;3449;48.728;8.968;2024-01-30T03:36:40;1.30;99.90
6822;DHT22;3449;48.728;8.968;2024-01-30T03:39:07;1.30;99.90
6822;DHT22;3449;48.728;8.968;2024-01-30T03:41:34;1.30;99.90
6822;DHT22;3449;48.728;8.968;2024-01-30T03:44:01;1.30;99.90
6822;DHT22;3449;48.728;8.968;2024-01-30T03:46:28;1.30;99.90
6822;DHT22;3449;48.728;8.968;2024-01-30T03:48:56;1.30;99.90
6822;DHT22;3449;48.728;8.968;2024-01-30T03:51:23;1.20;99.90
6822;DHT22;3449;48.728;8.968;2024-01-30T03:53:50;1.20;99.90
6822;DHT22;3449;48.728;8.968;2024-01-30T03:56:17;1.30;99.90
6822;DHT22;3449;48.728;8.968;2024-01-30T03:58:44;1.20;99.90
6822;DHT22;3449;48.728;8.968;2024-01-30T04:01:13;1.20;99.90
6822;DHT22;3449;48.728;8.968;2024-01-30T04:03:40;1.10;99.90
6822;DHT22;3449;48.728;8.968;2024-01-30T04:06:08;1.20;99.90
6822;DHT22;3449;48.728;8.968;2024-01-30T04:08:35;1.20;99.90
6822;DHT22;3449;48.728;8.968;2024-01-30T04:11:04;1.20;99.90
6822;DHT22;3449;48.728;8.968;2024-01-30T04:13:32;1.20;99.90
6822;DHT22;3449;48.728;8.968;2024-01-30T04:15:59;1.20;99.90
6822;DHT22;3449;48.728;8.968;2024-01-30T04:18:27;1.20;99.90
6822;DHT22;3449;48.728;8.968;2024-01-30T04:20:54;1.20;99.90
6822;DHT22;3449;48.728;8.968;2024-01-30T04:23:22;1.20;99.90
6822;DHT22;3449;48.728;8.968;2024-01-30T04:25:49;1.20;99.90
6822;DHT22;3449;48.728;8.968;2024-01-30T04:28:16;1.20;99.90
6822;DHT22;3449;48.728;8.968;2024-01-30T04:30:42;1.20;99.90
6822;DHT22;3449;48.728;8.968;2024-01-30T04:33:10;1.10;99.90
6822;DHT22;3449;48.728;8.968;2024-01-30T04:35:37;1.10;99.90
6822;DHT22;3449;48.728;8.968;2024-01-30T04:38:04;1.10;99.90
6822;DHT22;3449;48.728;8.968;2024-01-30T04:40:32;1.10;99.90
6822;DHT22;3449;48.728;8.968;2024-01-30T04:42:59;1.00;99.90
6822;DHT22;3449;48.728;8.968;2024-01-30T04:45:26;1.00;99.90
6822;DHT22;3449;48.728;8.968;2024-01-30T04:47:53;1.00;99.90
6822;DHT22;3449;48.728;8.968;2024-01-30T04:50:19;1.00;99.90
6822;DHT22;3449;48.728;8.968;2024-01-30T04:52:46;1.00;99.90
6822;DHT22;3449;48.728;8.968;2024-01-30T04:55:13;1.00;99.90
6822;DHT22;3449;48.728;8.968;2024-01-30T04:57:41;1.00;99.90
6822;DHT22;3449;48.728;8.968;2024-01-30T05:00:09;1.00;99.90
6822;DHT22;3449;48.728;8.968;2024-01-30T05:02:36;0.90;99.90
6822;DHT22;3449;48.728;8.968;2024-01-30T05:05:03;0.90;99.90
6822;DHT22;3449;48.728;8.968;2024-01-30T05:07:30;0.90;99.90
6822;DHT22;3449;48.728;8.968;2024-01-30T05:09:57;0.90;99.90
6822;DHT22;3449;48.728;8.968;2024-01-30T05:12:24;0.80;99.90
6822;DHT22;3449;48.728;8.968;2024-01-30T05:14:52;0.80;99.90
6822;DHT22;3449;48.728;8.968;2024-01-30T05:17:19;0.80;99.90
6822;DHT22;3449;48.728;8.968;2024-01-30T05:19:46;0.80;99.90
6822;DHT22;3449;48.728;8.968;2024-01-30T05:22:13;0.80;99.90
6822;DHT22;3449;48.728;8.968;2024-01-30T05:24:41;0.80;99.90
6822;DHT22;3449;48.728;8.968;2024-01-30T05:27:07;0.70;99.90
6822;DHT22;3449;48.728;8.968;2024-01-30T05:29:34;0.70;99.90
6822;DHT22;3449;48.728;8.968;2024-01-30T05:32:03;0.70;99.90
6822;DHT22;3449;48.728;8.968;2024-01-30T05:34:30;0.60;99.90
6822;DHT22;3449;48.728;8.968;2024-01-30T05:36:57;0.60;99.90
6822;DHT22;3449;48.728;8.968;2024-01-30T05:39:24;0.60;99.90
6822;DHT22;3449;48.728;8.968;2024-01-30T05:41:51;0.50;99.90
6822;DHT22;3449;48.728;8.968;2024-01-30T05:44:18;0.50;99.90
6822;DHT22;3449;48.728;8.968;2024-01-30T05:46:45;0.50;99.90
6822;DHT22;3449;48.728;8.968;2024-01-30T05:49:13;0.50;99.90
6822;DHT22;3449;48.728;8.968;2024-01-30T05:51:40;0.40;99.90
6822;DHT22;3449;48.728;8.968;2024-01-30T05:54:06;0.50;99.90
6822;DHT22;3449;48.728;8.968;2024-01-30T05:56:33;0.50;99.90
6822;DHT22;3449;48.728;8.968;2024-01-30T05:59:00;0.40;99.90
6822;DHT22;3449;48.728;8.968;2024-01-30T06:01:27;0.50;99.90
6822;DHT22;3449;48.728;8.968;2024-01-30T06:03:54;0.50;99.90
6822;DHT22;3449;48.728;8.968;2024-01-30T06:06:23;0.50;99.90
6822;DHT22;3449;48.728;8.968;2024-01-30T06:08:50;0.50;99.90
6822;DHT22;3449;48.728;8.968;2024-01-30T06:11:17;0.50;99.90
6822;DHT22;3449;48.728;8.968;2024-01-30T06:13:44;0.50;99.90
6822;DHT22;3449;48.728;8.968;2024-01-30T06:16:11;0.50;99.90
6822;DHT22;3449;48.728;8.968;2024-01-30T06:18:38;0.50;99.90
6822;DHT22;3449;48.728;8.968;2024-01-30T06:21:05;0.50;99.90
6822;DHT22;3449;48.728;8.968;2024-01-30T06:23:33;0.50;99.90
6822;DHT22;3449;48.728;8.968;2024-01-30T06:26:00;0.60;99.90
6822;DHT22;3449;48.728;8.968;2024-01-30T06:28:27;0.60;99.90
6822;DHT22;3449;48.728;8.968;2024-01-30T06:30:54;0.50;99.90
6822;DHT22;3449;48.728;8.968;2024-01-30T06:33:21;0.50;99.90
6822;DHT22;3449;48.728;8.968;2024-01-30T06:35:48;0.60;99.90
6822;DHT22;3449;48.728;8.968;2024-01-30T06:38:14;0.50;99.90
6822;DHT22;3449;48.728;8.968;2024-01-30T06:40:43;0.50;99.90
6822;DHT22;3449;48.728;8.968;2024-01-30T06:43:10;0.50;99.90
6822;DHT22;3449;48.728;8.968;2024-01-30T06:45:37;0.50;99.90
6822;DHT22;3449;48.728;8.968;2024-01-30T06:48:04;0.50;99.90
6822;DHT22;3449;48.728;8.968;2024-01-30T06:50:31;0.50;99.90
6822;DHT22;3449;48.728;8.968;2024-01-30T06:52:58;0.50;99.90
6822;DHT22;3449;48.728;8.968;2024-01-30T06:55:25;0.50;99.90
6822;DHT22;3449;48.728;8.968;2024-01-30T06:57:53;0.50;99.90
6822;DHT22;3449;48.728;8.968;2024-01-30T07:00:20;0.50;99.90
6822;DHT22;3449;48.728;8.968;2024-01-30T07:02:48;0.50;99.90
6822;DHT22;3449;48.728;8.968;2024-01-30T07:05:15;0.50;99.90
6822;DHT22;3449;48.728;8.968;2024-01-30T07:07:43;0.50;99.90
6822;DHT22;3449;48.728;8.968;2024-01-30T07:10:09;0.60;99.90
6822;DHT22;3449;48.728;8.968;2024-01-30T07:12:36;0.60;99.90
6822;DHT22;3449;48.728;8.968;2024-01-30T07:15:05;0.60;99.90
6822;DHT22;3449;48.728;8.968;2024-01-30T07:17:33;0.60;99.90
6822;DHT22;3449;48.728;8.968;2024-01-30T07:20:00;0.60;99.90
6822;DHT22;3449;48.728;8.968;2024-01-30T07:22:29;0.70;99.90
6822;DHT22;3449;48.728;8.968;2024-01-30T07:24:56;0.70;99.90
6822;DHT22;3449;48.728;8.968;2024-01-30T07:27:23;0.80;99.90
6822;DHT22;3449;48.728;8.968;2024-01-30T07:29:49;0.80;99.90
6822;DHT22;3449;48.728;8.968;2024-01-30T07:32:17;0.90;99.90
6822;DHT22;3449;48.728;8.968;2024-01-30T07:34:45;1.00;99.90
6822;DHT22;3449;48.728;8.968;2024-01-30T07:37:12;1.10;99.90
6822;DHT22;3449;48.728;8.968;2024-01-30T07:39:41;1.20;99.90
6822;DHT22;3449;48.728;8.968;2024-01-30T07:42:08;1.30;99.90
6822;DHT22;3449;48.728;8.968;2024-01-30T07:44:35;1.30;99.90
6822;DHT22;3449;48.728;8.968;2024-01-30T07:47:02;1.40;99.90
6822;DHT22;3449;48.728;8.968;2024-01-30T07:49:30;1.40;99.90
6822;DHT22;3449;48.728;8.968;2024-01-30T07:51:57;1.60;99.90
6822;DHT22;3449;48.728;8.968;2024-01-30T07:54:27;1.70;99.90
6822;DHT22;3449;48.728;8.968;2024-01-30T07:56:58;1.80;99.90
6822;DHT22;3449;48.728;8.968;2024-01-30T07:59:25;1.90;99.90
6822;DHT22;3449;48.728;8.968;2024-01-30T08:01:52;2.10;99.90
6822;DHT22;3449;48.728;8.968;2024-01-30T08:04:19;2.20;99.90
6822;DHT22;3449;48.728;8.968;2024-01-30T08:06:47;2.30;99.90
6822;DHT22;3449;48.728;8.968;2024-01-30T08:09:14;2.50;99.90
6822;DHT22;3449;48.728;8.968;2024-01-30T08:11:41;2.70;99.90
6822;DHT22;3449;48.728;8.968;2024-01-30T08:14:08;2.80;99.90
6822;DHT22;3449;48.728;8.968;2024-01-30T08:16:34;3.00;99.90
6822;DHT22;3449;48.728;8.968;2024-01-30T08:19:02;3.10;99.90
6822;DHT22;3449;48.728;8.968;2024-01-30T08:21:29;3.20;99.90
6822;DHT22;3449;48.728;8.968;2024-01-30T08:23:57;3.40;99.90
6822;DHT22;3449;48.728;8.968;2024-01-30T08:26:24;3.50;99.90
6822;DHT22;3449;48.728;8.968;2024-01-30T08:28:51;3.70;99.90
6822;DHT22;3449;48.728;8.968;2024-01-30T08:31:19;3.70;99.90
6822;DHT22;3449;48.728;8.968;2024-01-30T08:33:45;3.70;99.90
6822;DHT22;3449;48.728;8.968;2024-01-30T08:36:13;3.70;99.90
6822;DHT22;3449;48.728;8.968;2024-01-30T08:38:39;3.60;99.90
6822;DHT22;3449;48.728;8.968;2024-01-30T08:41:08;3.50;99.90
6822;DHT22;3449;48.728;8.968;2024-01-30T08:43:35;3.50;99.90
6822;DHT22;3449;48.728;8.968;2024-01-30T08:46:03;3.50;99.90
6822;DHT22;3449;48.728;8.968;2024-01-30T08:48:30;3.50;99.90
6822;DHT22;3449;48.728;8.968;2024-01-30T08:50:56;3.60;99.90
6822;DHT22;3449;48.728;8.968;2024-01-30T08:53:23;3.60;99.90
6822;DHT22;3449;48.728;8.968;2024-01-30T08:55:50;3.80;99.90
6822;DHT22;3449;48.728;8.968;2024-01-30T08:58:18;4.00;99.90
6822;DHT22;3449;48.728;8.968;2024-01-30T09:00:45;4.20;99.90
6822;DHT22;3449;48.728;8.968;2024-01-30T09:03:12;4.40;99.90
6822;DHT22;3449;48.728;8.968;2024-01-30T09:05:39;4.60;90.70
6822;DHT22;3449;48.728;8.968;2024-01-30T09:08:06;4.70;35.50
6822;DHT22;3449;48.728;8.968;2024-01-30T09:10:33;4.80;14.10
6822;DHT22;3449;48.728;8.968;2024-01-30T09:13:00;5.00;1.00
6822;DHT22;3449;48.728;8.968;2024-01-30T09:15:28;5.10;1.00
6822;DHT22;3449;48.728;8.968;2024-01-30T09:17:55;5.20;1.00
6822;DHT22;3449;48.728;8.968;2024-01-30T09:20:22;5.30;1.00
6822;DHT22;3449;48.728;8.968;2024-01-30T09:22:48;5.40;1.00
6822;DHT22;3449;48.728;8.968;2024-01-30T09:25:15;5.50;1.00
6822;DHT22;3449;48.728;8.968;2024-01-30T09:27:44;5.60;1.00
6822;DHT22;3449;48.728;8.968;2024-01-30T09:30:11;5.70;1.00
6822;DHT22;3449;48.728;8.968;2024-01-30T09:32:41;5.70;1.00
6822;DHT22;3449;48.728;8.968;2024-01-30T09:35:09;5.80;99.90
6822;DHT22;3449;48.728;8.968;2024-01-30T09:37:35;5.80;99.90
6822;DHT22;3449;48.728;8.968;2024-01-30T09:40:03;5.80;1.00
6822;DHT22;3449;48.728;8.968;2024-01-30T09:42:34;5.90;99.90
6822;DHT22;3449;48.728;8.968;2024-01-30T09:45:01;5.90;99.90
6822;DHT22;3449;48.728;8.968;2024-01-30T09:47:31;6.00;99.90
6822;DHT22;3449;48.728;8.968;2024-01-30T09:50:01;6.00;99.90
6822;DHT22;3449;48.728;8.968;2024-01-30T09:52:29;6.00;99.90
6822;DHT22;3449;48.728;8.968;2024-01-30T09:54:56;6.10;99.90
6822;DHT22;3449;48.728;8.968;2024-01-30T09:57:25;6.10;99.90
6822;DHT22;3449;48.728;8.968;2024-01-30T09:59:51;6.20;99.90
6822;DHT22;3449;48.728;8.968;2024-01-30T10:02:19;6.30;99.90
6822;DHT22;3449;48.728;8.968;2024-01-30T10:04:48;6.40;99.90
6822;DHT22;3449;48.728;8.968;2024-01-30T10:07:17;6.50;43.80
6822;DHT22;3449;48.728;8.968;2024-01-30T10:09:44;6.60;38.10
6822;DHT22;3449;48.728;8.968;2024-01-30T10:12:11;6.60;2.60
6822;DHT22;3449;48.728;8.968;2024-01-30T10:14:39;6.70;1.00
6822;DHT22;3449;48.728;8.968;2024-01-30T10:17:07;6.80;1.00
6822;DHT22;3449;48.728;8.968;2024-01-30T10:19:34;6.90;99.90
6822;DHT22;3449;48.728;8.968;2024-01-30T10:22:01;6.90;99.90
6822;DHT22;3449;48.728;8.968;2024-01-30T10:24:29;7.00;99.90
6822;DHT22;3449;48.728;8.968;2024-01-30T10:26:56;7.10;99.90
6822;DHT22;3449;48.728;8.968;2024-01-30T10:29:24;7.10;99.90
6822;DHT22;3449;48.728;8.968;2024-01-30T10:32:01;7.20;99.90
6822;DHT22;3449;48.728;8.968;2024-01-30T10:34:28;7.30;99.90
6822;DHT22;3449;48.728;8.968;2024-01-30T10:37:01;7.40;1.00
6822;DHT22;3449;48.728;8.968;2024-01-30T10:39:37;7.60;1.00
6822;DHT22;3449;48.728;8.968;2024-01-30T10:42:05;7.60;1.00
6822;DHT22;3449;48.728;8.968;2024-01-30T10:44:43;7.70;1.00
6822;DHT22;3449;48.728;8.968;2024-01-30T10:47:12;7.80;99.90
6822;DHT22;3449;48.728;8.968;2024-01-30T10:49:40;8.00;51.70
6822;DHT22;3449;48.728;8.968;2024-01-30T10:52:09;8.10;1.00
6822;DHT22;3449;48.728;8.968;2024-01-30T10:54:40;8.30;99.90
6822;DHT22;3449;48.728;8.968;2024-01-30T10:57:09;8.50;99.90
6822;DHT22;3449;48.728;8.968;2024-01-30T10:59:37;8.60;99.90
6822;DHT22;3449;48.728;8.968;2024-01-30T11:02:04;8.60;99.90
6822;DHT22;3449;48.728;8.968;2024-01-30T11:04:36;8.70;22.30
6822;DHT22;3449;48.728;8.968;2024-01-30T11:07:03;8.90;99.90
6822;DHT22;3449;48.728;8.968;2024-01-30T11:09:48;8.90;99.90
6822;DHT22;3449;48.728;8.968;2024-01-30T11:12:15;9.00;99.90
6822;DHT22;3449;48.728;8.968;2024-01-30T11:14:42;9.00;99.90
6822;DHT22;3449;48.728;8.968;2024-01-30T11:17:10;9.10;1.00
6822;DHT22;3449;48.728;8.968;2024-01-30T11:19:38;9.10;1.00
6822;DHT22;3449;48.728;8.968;2024-01-30T11:22:06;9.10;1.00
6822;DHT22;3449;48.728;8.968;2024-01-30T11:24:40;9.20;82.40
6822;DHT22;3449;48.728;8.968;2024-01-30T11:27:09;9.30;99.90
6822;DHT22;3449;48.728;8.968;2024-01-30T11:29:36;9.30;1.00
6822;DHT22;3449;48.728;8.968;2024-01-30T11:32:03;9.40;99.90
6822;DHT22;3449;48.728;8.968;2024-01-30T11:34:30;9.50;99.90
6822;DHT22;3449;48.728;8.968;2024-01-30T11:37:04;9.50;75.80
6822;DHT22;3449;48.728;8.968;2024-01-30T11:39:36;9.60;99.90
6822;DHT22;3449;48.728;8.968;2024-01-30T11:42:06;9.70;99.90
6822;DHT22;3449;48.728;8.968;2024-01-30T11:44:34;9.80;1.00
6822;DHT22;3449;48.728;8.968;2024-01-30T11:47:01;9.80;99.90
6822;DHT22;3449;48.728;8.968;2024-01-30T11:49:29;9.80;99.90
6822;DHT22;3449;48.728;8.968;2024-01-30T11:51:56;9.90;99.90
6822;DHT22;3449;48.728;8.968;2024-01-30T11:54:23;9.80;1.00
6822;DHT22;3449;48.728;8.968;2024-01-30T11:56:49;9.90;1.00
6822;DHT22;3449;48.728;8.968;2024-01-30T11:59:18;9.90;1.00
6822;DHT22;3449;48.728;8.968;2024-01-30T12:01:44;10.00;99.90
6822;DHT22;3449;48.728;8.968;2024-01-30T12:04:11;10.00;1.00
6822;DHT22;3449;48.728;8.968;2024-01-30T12:06:39;10.10;1.00
6822;DHT22;3449;48.728;8.968;2024-01-30T12:09:06;10.20;1.00
6822;DHT22;3449;48.728;8.968;2024-01-30T12:11:43;10.30;1.00
6822;DHT22;3449;48.728;8.968;2024-01-30T12:14:12;10.40;1.00
6822;DHT22;3449;48.728;8.968;2024-01-30T12:16:40;10.60;99.90
6822;DHT22;3449;48.728;8.968;2024-01-30T12:19:08;10.60;99.90
6822;DHT22;3449;48.728;8.968;2024-01-30T12:21:35;10.70;66.70
6822;DHT22;3449;48.728;8.968;2024-01-30T12:24:02;10.80;99.90
6822;DHT22;3449;48.728;8.968;2024-01-30T12:26:29;11.00;99.90
6822;DHT22;3449;48.728;8.968;2024-01-30T12:28:56;11.20;1.00
6822;DHT22;3449;48.728;8.968;2024-01-30T12:31:27;11.30;99.90
6822;DHT22;3449;48.728;8.968;2024-01-30T12:33:55;11.40;1.00
6822;DHT22;3449;48.728;8.968;2024-01-30T12:36:22;11.50;1.00
6822;DHT22;3449;48.728;8.968;2024-01-30T12:38:50;11.50;1.00
6822;DHT22;3449;48.728;8.968;2024-01-30T12:41:17;11.60;78.80
6822;DHT22;3449;48.728;8.968;2024-01-30T12:43:44;11.80;1.00
6822;DHT22;3449;48.728;8.968;2024-01-30T12:46:11;11.90;1.00
6822;DHT22;3449;48.728;8.968;2024-01-30T12:48:37;12.00;99.90
6822;DHT22;3449;48.728;8.968;2024-01-30T12:51:06;12.20;1.00
6822;DHT22;3449;48.728;8.968;2024-01-30T12:53:33;12.60;99.90
6822;DHT22;3449;48.728;8.968;2024-01-30T12:55:59;13.00;99.90
6822;DHT22;3449;48.728;8.968;2024-01-30T12:58:26;13.20;65.80
6822;DHT22;3449;48.728;8.968;2024-01-30T13:00:53;13.30;99.90
6822;DHT22;3449;48.728;8.968;2024-01-30T13:03:20;13.50;99.90
6822;DHT22;3449;48.728;8.968;2024-01-30T13:05:48;13.60;99.90
6822;DHT22;3449;48.728;8.968;2024-01-30T13:08:16;14.00;99.90
6822;DHT22;3449;48.728;8.968;2024-01-30T13:10:43;14.40;1.00
6822;DHT22;3449;48.728;8.968;2024-01-30T13:13:10;14.30;1.00
6822;DHT22;3449;48.728;8.968;2024-01-30T13:15:37;14.40;1.00
6822;DHT22;3449;48.728;8.968;2024-01-30T13:18:04;14.30;1.00
6822;DHT22;3449;48.728;8.968;2024-01-30T13:20:31;13.90;1.00
6822;DHT22;3449;48.728;8.968;2024-01-30T13:22:58;13.60;93.20
6822;DHT22;3449;48.728;8.968;2024-01-30T13:25:26;13.60;83.20
6822;DHT22;3449;48.728;8.968;2024-01-30T13:27:53;13.60;44.20
6822;DHT22;3449;48.728;8.968;2024-01-30T13:30:20;13.40;99.90
6822;DHT22;3449;48.728;8.968;2024-01-30T13:32:46;13.30;6.80
6822;DHT22;3449;48.728;8.968;2024-01-30T13:35:13;13.20;1.00
6822;DHT22;3449;48.728;8.968;2024-01-30T13:37:40;13.10;99.90
6822;DHT22;3449;48.728;8.968;2024-01-30T13:40:09;13.10;99.90
6822;DHT22;3449;48.728;8.968;2024-01-30T13:42:37;13.00;99.90
6822;DHT22;3449;48.728;8.968;2024-01-30T13:45:05;12.80;99.90
6822;DHT22;3449;48.728;8.968;2024-01-30T13:47:32;12.70;99.90
6822;DHT22;3449;48.728;8.968;2024-01-30T13:49:58;12.60;99.90
6822;DHT22;3449;48.728;8.968;2024-01-30T13:52:25;12.50;99.90
6822;DHT22;3449;48.728;8.968;2024-01-30T13:54:52;12.50;99.90
6822;DHT22;3449;48.728;8.968;2024-01-30T13:57:19;12.50;99.90
6822;DHT22;3449;48.728;8.968;2024-01-30T13:59:47;12.50;1.00
6822;DHT22;3449;48.728;8.968;2024-01-30T14:02:14;12.50;1.00
6822;DHT22;3449;48.728;8.968;2024-01-30T14:04:41;12.50;1.00
6822;DHT22;3449;48.728;8.968;2024-01-30T14:07:09;12.50;99.90
6822;DHT22;3449;48.728;8.968;2024-01-30T14:09:35;12.50;1.00
6822;DHT22;3449;48.728;8.968;2024-01-30T14:12:03;12.50;1.00
6822;DHT22;3449;48.728;8.968;2024-01-30T14:14:30;12.50;1.00
6822;DHT22;3449;48.728;8.968;2024-01-30T14:16:58;12.50;1.00
6822;DHT22;3449;48.728;8.968;2024-01-30T14:19:25;12.40;1.00
6822;DHT22;3449;48.728;8.968;2024-01-30T14:21:52;12.40;1.00
6822;DHT22;3449;48.728;8.968;2024-01-30T14:24:18;12.30;99.90
6822;DHT22;3449;48.728;8.968;2024-01-30T14:26:45;12.30;1.00
6822;DHT22;3449;48.728;8.968;2024-01-30T14:29:12;12.30;99.90
6822;DHT22;3449;48.728;8.968;2024-01-30T14:31:39;12.20;1.00
6822;DHT22;3449;48.728;8.968;2024-01-30T14:34:07;12.20;99.90
6822;DHT22;3449;48.728;8.968;2024-01-30T14:36:36;12.20;1.00
6822;DHT22;3449;48.728;8.968;2024-01-30T14:39:03;12.10;1.00
6822;DHT22;3449;48.728;8.968;2024-01-30T14:41:31;12.00;1.00
6822;DHT22;3449;48.728;8.968;2024-01-30T14:43:58;12.00;1.00
6822;DHT22;3449;48.728;8.968;2024-01-30T14:46:25;11.90;5.60
6822;DHT22;3449;48.728;8.968;2024-01-30T14:48:53;11.90;4.80
6822;DHT22;3449;48.728;8.968;2024-01-30T14:51:21;11.80;96.90
6822;DHT22;3449;48.728;8.968;2024-01-30T14:53:48;11.70;26.10
6822;DHT22;3449;48.728;8.968;2024-01-30T14:56:15;11.70;99.90
6822;DHT22;3449;48.728;8.968;2024-01-30T14:58:41;11.60;99.90
6822;DHT22;3449;48.728;8.968;2024-01-30T15:01:09;11.60;99.90
6822;DHT22;3449;48.728;8.968;2024-01-30T15:03:36;11.50;1.00
6822;DHT22;3449;48.728;8.968;2024-01-30T15:06:04;11.50;1.00
6822;DHT22;3449;48.728;8.968;2024-01-30T15:08:32;11.40;1.00
6822;DHT22;3449;48.728;8.968;2024-01-30T15:10:59;11.30;92.10
6822;DHT22;3449;48.728;8.968;2024-01-30T15:13:29;11.20;99.90
6822;DHT22;3449;48.728;8.968;2024-01-30T15:15:56;11.10;99.90
6822;DHT22;3449;48.728;8.968;2024-01-30T15:18:23;11.10;99.90
6822;DHT22;3449;48.728;8.968;2024-01-30T15:20:50;11.00;1.00
6822;DHT22;3449;48.728;8.968;2024-01-30T15:23:17;11.00;99.90
6822;DHT22;3449;48.728;8.968;2024-01-30T15:25:45;10.90;1.00
6822;DHT22;3449;48.728;8.968;2024-01-30T15:28:12;10.80;99.90
6822;DHT22;3449;48.728;8.968;2024-01-30T15:30:40;10.70;99.90
6822;DHT22;3449;48.728;8.968;2024-01-30T15:33:08;10.60;1.00
6822;DHT22;3449;48.728;8.968;2024-01-30T15:35:35;10.50;99.90
6822;DHT22;3449;48.728;8.968;2024-01-30T15:38:03;10.40;1.00
6822;DHT22;3449;48.728;8.968;2024-01-30T15:40:33;10.40;99.90
6822;DHT22;3449;48.728;8.968;2024-01-30T15:43:02;10.30;1.00
6822;DHT22;3449;48.728;8.968;2024-01-30T15:45:28;10.20;99.90
6822;DHT22;3449;48.728;8.968;2024-01-30T15:47:56;10.10;1.00
6822;DHT22;3449;48.728;8.968;2024-01-30T15:50:24;10.10;1.00
6822;DHT22;3449;48.728;8.968;2024-01-30T15:52:50;10.00;1.00
6822;DHT22;3449;48.728;8.968;2024-01-30T15:55:17;9.90;1.00
6822;DHT22;3449;48.728;8.968;2024-01-30T15:57:45;9.80;89.80
6822;DHT22;3449;48.728;8.968;2024-01-30T16:00:14;9.70;99.90
6822;DHT22;3449;48.728;8.968;2024-01-30T16:02:42;9.70;1.00
6822;DHT22;3449;48.728;8.968;2024-01-30T16:05:09;9.60;46.70
6822;DHT22;3449;48.728;8.968;2024-01-30T16:07:36;9.50;99.90
6822;DHT22;3449;48.728;8.968;2024-01-30T16:10:03;9.40;1.00
6822;DHT22;3449;48.728;8.968;2024-01-30T16:12:30;9.30;1.00
6822;DHT22;3449;48.728;8.968;2024-01-30T16:14:56;9.20;99.90
6822;DHT22;3449;48.728;8.968;2024-01-30T16:17:25;9.10;99.90